createdAt,value
2018-06-23T00:01:34.820Z,18.95
2018-06-23T00:04:03.703Z,15.68
2018-06-23T00:06:32.393Z,23.60
2018-06-23T00:09:01.260Z,16.32
2018-06-23T00:11:29.879Z,13.08
2018-06-23T00:13:58.544Z,17.57
2018-06-23T00:16:27.215Z,19.45
2018-06-23T00:18:56.285Z,21.37
2018-06-23T00:21:24.896Z,19.23
2018-06-23T00:23:53.490Z,22.85
2018-06-23T00:26:27.265Z,17.57
2018-06-23T00:28:56.348Z,22.02
2018-06-23T00:31:25.110Z,21.30
2018-06-23T00:33:53.720Z,24.75
2018-06-23T00:36:22.561Z,25.68
2018-06-23T00:38:51.181Z,16.37
2018-06-23T00:41:19.805Z,22.95
2018-06-23T00:43:48.676Z,46.20
2018-06-23T00:46:17.531Z,27.10
2018-06-23T00:48:47.399Z,18.95
2018-06-23T00:51:16.059Z,24.63
2018-06-23T00:53:45.291Z,23.73
2018-06-23T00:56:14.138Z,31.50
2018-06-23T00:58:54.194Z,24.77
2018-06-23T01:01:22.813Z,23.35
2018-06-23T01:03:51.764Z,14.33
2018-06-23T01:06:20.633Z,28.15
2018-06-23T01:08:49.240Z,18.27
2018-06-23T01:11:17.872Z,18.60
2018-06-23T01:13:46.506Z,23.15
2018-06-23T01:16:15.140Z,13.25
2018-06-23T01:18:43.755Z,23.47
2018-06-23T01:21:12.360Z,23.18
2018-06-23T01:23:41.267Z,19.48
2018-06-23T01:26:09.877Z,19.00
2018-06-23T01:28:38.468Z,17.62
2018-06-23T01:31:07.132Z,23.75
2018-06-23T01:33:35.988Z,20.20
2018-06-23T01:36:04.901Z,20.62
2018-06-23T01:38:33.979Z,23.25
2018-06-23T01:41:02.560Z,25.62
2018-06-23T01:43:31.185Z,16.40
2018-06-23T01:46:00.033Z,27.58
2018-06-23T01:48:28.949Z,24.07
2018-06-23T01:50:57.859Z,22.20
2018-06-23T01:53:26.725Z,21.37
2018-06-23T01:55:55.330Z,17.75
2018-06-23T01:58:23.932Z,18.32
2018-06-23T02:00:52.536Z,18.17
2018-06-23T02:03:21.367Z,27.07
2018-06-23T02:05:49.985Z,24.00
2018-06-23T02:08:18.630Z,20.88
2018-06-23T02:10:47.253Z,32.13
2018-06-23T02:13:16.419Z,27.00
2018-06-23T02:15:50.247Z,24.27
2018-06-23T02:18:24.188Z,24.60
2018-06-23T02:20:57.960Z,39.50
2018-06-23T02:23:31.795Z,22.07
2018-06-23T02:26:05.671Z,23.32
2018-06-23T02:28:39.611Z,19.48
2018-06-23T02:31:13.776Z,49.13
2018-06-23T02:33:47.982Z,23.60
2018-06-23T02:36:16.831Z,25.72
2018-06-23T02:38:45.461Z,23.00
2018-06-23T02:41:14.330Z,30.72
2018-06-23T02:43:43.204Z,23.87
2018-06-23T02:46:12.776Z,36.93
2018-06-23T02:48:45.788Z,26.00
2018-06-23T02:51:14.653Z,33.63
2018-06-23T02:53:43.569Z,34.92
2018-06-23T02:56:12.200Z,27.55
2018-06-23T02:58:41.061Z,23.32
2018-06-23T03:01:09.699Z,30.88
2018-06-23T03:03:38.689Z,24.05
2018-06-23T03:06:07.332Z,32.08
2018-06-23T03:08:36.191Z,22.17
2018-06-23T03:11:05.187Z,25.57
2018-06-23T03:13:33.834Z,29.95
2018-06-23T03:16:02.460Z,30.70
2018-06-23T03:18:31.089Z,26.82
2018-06-23T03:20:59.930Z,26.25
2018-06-23T03:23:28.803Z,38.30
2018-06-23T03:25:57.920Z,33.50
2018-06-23T03:28:26.803Z,49.50
2018-06-23T03:30:55.645Z,43.78
2018-06-23T03:33:24.544Z,61.37
2018-06-23T03:35:53.473Z,39.25
2018-06-23T03:38:22.731Z,30.92
2018-06-23T03:40:51.392Z,34.10
2018-06-23T03:43:20.329Z,51.02
2018-06-23T03:45:49.595Z,39.13
2018-06-23T03:48:18.481Z,50.75
2018-06-23T03:50:47.342Z,42.55
2018-06-23T03:53:16.017Z,35.10
2018-06-23T03:55:44.902Z,44.35
2018-06-23T03:58:13.756Z,42.67
2018-06-23T04:00:47.841Z,46.28
2018-06-23T04:03:16.484Z,45.92
2018-06-23T04:05:47.033Z,53.83
2018-06-23T04:08:17.032Z,45.63
2018-06-23T04:10:45.657Z,45.73
2018-06-23T04:13:14.297Z,48.25
2018-06-23T04:15:42.967Z,42.93
2018-06-23T04:18:12.101Z,36.85
2018-06-23T04:20:40.961Z,38.70
2018-06-23T04:23:09.570Z,37.23
2018-06-23T04:25:38.214Z,48.55
2018-06-23T04:28:06.852Z,49.48
2018-06-23T04:30:35.728Z,35.92
2018-06-23T04:33:04.380Z,39.48
2018-06-23T04:35:33.080Z,39.33
2018-06-23T04:38:01.704Z,44.10
2018-06-23T04:40:30.839Z,46.20
2018-06-23T04:42:59.465Z,44.58
2018-06-23T04:45:28.325Z,46.42
2018-06-23T04:47:57.256Z,44.63
2018-06-23T04:50:25.889Z,41.45
2018-06-23T04:52:54.582Z,41.13
2018-06-23T04:55:22.884Z,52.50
2018-06-23T04:57:51.525Z,54.38
2018-06-23T05:00:24.401Z,45.43
2018-06-23T05:02:53.516Z,55.55
2018-06-23T05:05:22.148Z,45.23
2018-06-23T05:07:50.791Z,50.10
2018-06-23T05:10:19.641Z,49.25
2018-06-23T05:12:48.260Z,42.75
2018-06-23T05:15:17.161Z,52.13
2018-06-23T05:17:46.053Z,51.65
2018-06-23T05:20:14.811Z,58.35
2018-06-23T05:22:44.236Z,47.23
2018-06-23T05:25:12.853Z,40.17
2018-06-23T05:27:42.612Z,47.05
2018-06-23T05:30:12.326Z,42.30
2018-06-23T05:32:41.230Z,41.73
2018-06-23T05:35:10.164Z,48.75
2018-06-23T05:37:39.549Z,43.85
2018-06-23T05:40:09.488Z,52.45
2018-06-23T05:42:39.418Z,40.73
2018-06-23T05:45:09.108Z,47.75
2018-06-23T05:47:39.008Z,44.15
2018-06-23T05:50:08.531Z,41.98
2018-06-23T05:52:38.409Z,37.40
2018-06-23T05:55:07.845Z,39.00
2018-06-23T05:57:36.480Z,31.90
2018-06-23T06:00:05.594Z,36.03
2018-06-23T06:02:34.491Z,47.83
2018-06-23T06:05:03.160Z,41.48
2018-06-23T06:07:31.814Z,37.20
2018-06-23T06:10:00.928Z,31.30
2018-06-23T06:12:29.918Z,38.77
2018-06-23T06:14:58.588Z,30.20
2018-06-23T06:17:42.035Z,33.27
2018-06-23T06:20:12.294Z,25.10
2018-06-23T06:22:43.346Z,16.77
2018-06-23T06:25:12.581Z,35.63
2018-06-23T06:27:41.216Z,26.70
2018-06-23T06:30:10.665Z,18.47
2018-06-23T06:32:39.296Z,18.83
2018-06-23T06:35:08.597Z,17.90
2018-06-23T06:37:37.216Z,17.57
2018-06-23T06:40:06.677Z,18.33
2018-06-23T06:42:35.503Z,25.20
2018-06-23T06:45:04.605Z,16.10
2018-06-23T06:47:33.225Z,22.97
2018-06-23T06:50:02.549Z,24.10
2018-06-23T06:52:31.191Z,20.53
2018-06-23T06:54:59.876Z,24.13
2018-06-23T06:57:28.544Z,17.43
2018-06-23T06:59:57.224Z,21.30
2018-06-23T07:02:26.159Z,27.07
2018-06-23T07:04:54.755Z,14.83
2018-06-23T07:07:23.352Z,13.57
2018-06-23T07:09:52.552Z,17.60
2018-06-23T07:12:21.179Z,15.10
2018-06-23T07:14:50.889Z,19.70
2018-06-23T07:17:20.018Z,18.17
2018-06-23T07:19:51.261Z,22.90
2018-06-23T07:22:20.287Z,24.60
2018-06-23T07:24:49.955Z,16.70
2018-06-23T07:27:19.706Z,14.73
2018-06-23T07:29:49.139Z,14.80
2018-06-23T07:32:18.439Z,18.80
2018-06-23T07:34:47.975Z,17.80
2018-06-23T07:37:17.408Z,12.70
2018-06-23T07:39:46.183Z,14.73
2018-06-23T07:42:16.012Z,13.40
2018-06-23T07:44:44.700Z,15.30
2018-06-23T07:47:13.531Z,14.23
2018-06-23T07:49:42.371Z,12.80
2018-06-23T07:52:11.002Z,17.23
2018-06-23T07:54:39.893Z,15.67
2018-06-23T07:57:09.165Z,15.57
2018-06-23T07:59:38.128Z,15.53
2018-06-23T08:02:07.237Z,24.73
2018-06-23T08:04:36.215Z,25.10
2018-06-23T08:07:04.912Z,13.60
2018-06-23T08:09:33.837Z,14.43
2018-06-23T08:12:02.478Z,17.07
2018-06-23T08:14:31.112Z,14.30
2018-06-23T08:16:59.731Z,19.27
2018-06-23T08:19:28.028Z,22.57
2018-06-23T08:21:57.436Z,16.17
2018-06-23T08:24:26.040Z,14.63
2018-06-23T08:26:54.766Z,11.73
2018-06-23T08:29:24.118Z,13.50
2018-06-23T08:31:52.973Z,19.80
2018-06-23T08:34:21.623Z,13.20
2018-06-23T08:36:50.293Z,15.33
2018-06-23T08:39:18.932Z,13.97
2018-06-23T08:41:47.569Z,16.13
2018-06-23T08:44:16.428Z,24.00
2018-06-23T08:46:45.037Z,24.63
2018-06-23T08:49:14.215Z,21.23
2018-06-23T08:51:42.889Z,22.63
2018-06-23T08:54:11.795Z,13.93
2018-06-23T08:56:40.993Z,14.93
2018-06-23T08:59:09.865Z,9.60
2018-06-23T09:01:38.505Z,11.13
2018-06-23T09:04:07.512Z,15.30
2018-06-23T09:06:36.128Z,12.07
2018-06-23T09:09:07.614Z,10.63
2018-06-23T09:11:36.275Z,13.90
2018-06-23T09:14:04.936Z,18.37
2018-06-23T09:16:33.809Z,10.10
2018-06-23T09:19:02.734Z,13.80
2018-06-23T09:21:31.924Z,19.87
2018-06-23T09:24:04.885Z,11.97
2018-06-23T09:26:34.324Z,20.60
2018-06-23T09:29:03.328Z,9.17
2018-06-23T09:31:32.009Z,14.10
2018-06-23T09:34:00.645Z,15.07
2018-06-23T09:36:29.535Z,24.87
2018-06-23T09:38:58.212Z,16.50
2018-06-23T09:41:26.961Z,12.77
2018-06-23T09:43:55.573Z,18.87
2018-06-23T09:46:24.500Z,22.33
2018-06-23T09:48:53.360Z,13.97
2018-06-23T09:51:21.993Z,13.57
2018-06-23T10:03:00.275Z,9.30
2018-06-23T10:05:30.265Z,10.37
2018-06-23T10:08:00.242Z,13.13
2018-06-23T10:10:29.999Z,6.83
2018-06-23T10:12:59.623Z,14.30
2018-06-23T10:15:29.027Z,9.13
2018-06-23T10:17:58.957Z,20.13
2018-06-23T10:20:28.627Z,11.43
2018-06-23T10:22:57.773Z,14.40
2018-06-23T10:25:27.055Z,10.90
2018-06-23T10:27:56.272Z,12.23
2018-06-23T10:30:25.230Z,9.67
2018-06-23T10:32:54.237Z,8.33
2018-06-23T10:35:27.970Z,7.97
2018-06-23T10:37:56.638Z,8.27
2018-06-23T10:40:25.896Z,13.30
2018-06-23T10:42:55.028Z,25.83
2018-06-23T10:45:24.220Z,20.63
2018-06-23T10:47:53.248Z,11.90
2018-06-23T10:50:27.143Z,9.90
2018-06-23T10:52:56.100Z,11.43
2018-06-23T10:55:24.902Z,11.67
2018-06-23T10:57:54.834Z,14.63
2018-06-23T11:00:26.077Z,19.77
2018-06-23T11:02:55.580Z,16.90
2018-06-23T11:05:25.883Z,11.77
2018-06-23T11:07:55.782Z,12.87
2018-06-23T11:10:24.742Z,20.50
2018-06-23T11:12:56.659Z,17.80
2018-06-23T11:15:25.825Z,15.07
2018-06-23T11:17:54.570Z,17.53
2018-06-23T11:20:23.691Z,7.97
2018-06-23T11:22:53.551Z,11.53
2018-06-23T11:25:22.604Z,13.63
2018-06-23T11:27:51.104Z,13.10
2018-06-23T11:30:19.689Z,14.33
2018-06-23T11:35:41.089Z,16.77
2018-06-23T11:38:09.680Z,16.13
2018-06-23T11:40:38.445Z,8.00
2018-06-23T11:43:06.911Z,14.10
2018-06-23T11:45:35.470Z,18.13
2018-06-23T11:48:05.207Z,16.83
2018-06-23T11:50:33.667Z,12.70
2018-06-23T11:53:02.210Z,20.30
2018-06-23T11:55:31.758Z,13.67
2018-06-23T11:58:01.951Z,13.10
2018-06-23T12:00:30.733Z,16.67
2018-06-23T12:03:01.883Z,17.97
2018-06-23T12:05:37.254Z,11.80
2018-06-23T12:08:06.821Z,10.90
2018-06-23T12:10:35.410Z,9.00
2018-06-23T12:13:04.433Z,18.00
2018-06-23T12:15:33.215Z,16.10
2018-06-23T12:18:02.651Z,20.30
2018-06-23T12:23:07.566Z,11.80
2018-06-23T12:25:37.445Z,12.50
2018-06-23T12:28:07.145Z,15.53
2018-06-23T12:30:37.334Z,12.90
2018-06-23T12:33:09.762Z,14.90
2018-06-23T12:35:38.718Z,17.80
2018-06-23T12:38:07.651Z,18.13
2018-06-23T12:40:40.838Z,15.17
2018-06-23T12:43:10.341Z,14.13
2018-06-23T12:45:40.289Z,11.23
2018-06-23T12:48:08.873Z,20.20
2018-06-23T12:50:38.883Z,17.40
2018-06-23T12:53:07.730Z,19.03
2018-06-23T12:55:36.213Z,18.33
2018-06-23T12:58:04.685Z,12.97
2018-06-23T13:00:34.472Z,16.90
2018-06-23T13:03:03.827Z,11.90
2018-06-23T13:05:33.543Z,16.53
2018-06-23T13:08:03.672Z,14.10
2018-06-23T13:10:32.467Z,9.37
2018-06-23T13:13:02.442Z,13.83
2018-06-23T13:15:32.156Z,12.37
2018-06-23T13:18:01.276Z,16.67
2018-06-23T13:20:31.018Z,12.23
2018-06-23T13:23:01.478Z,10.83
2018-06-23T13:25:31.305Z,11.90
2018-06-23T13:27:59.825Z,11.43
2018-06-23T13:30:28.714Z,6.73
2018-06-23T13:32:57.774Z,7.57
2018-06-23T13:35:30.440Z,10.67
2018-06-23T13:38:02.774Z,9.63
2018-06-23T13:40:31.287Z,16.00
2018-06-23T13:43:00.467Z,10.77
2018-06-23T13:45:29.645Z,6.93
2018-06-23T13:48:00.937Z,9.87
2018-06-23T13:50:33.643Z,6.67
2018-06-23T13:53:02.226Z,10.80
2018-06-23T13:55:30.739Z,6.33
2018-06-23T13:57:59.237Z,9.00
2018-06-23T14:00:30.618Z,8.50
2018-06-23T14:02:59.386Z,5.47
2018-06-23T14:05:28.963Z,7.30
2018-06-23T14:07:57.934Z,4.27
2018-06-23T14:10:28.693Z,8.23
2018-06-23T14:12:57.369Z,4.70
2018-06-23T14:15:26.721Z,8.10
2018-06-23T14:17:55.782Z,6.13
2018-06-23T14:20:24.214Z,5.03
2018-06-23T14:22:52.669Z,5.80
2018-06-23T14:25:21.117Z,6.00
2018-06-23T14:27:49.546Z,6.50
2018-06-23T14:30:18.081Z,8.83
2018-06-23T14:32:46.546Z,6.20
2018-06-23T14:35:15.029Z,6.83
2018-06-23T14:37:43.453Z,5.40
2018-06-23T14:40:12.720Z,27.03
2018-06-23T14:42:41.204Z,6.13
2018-06-23T14:45:09.670Z,6.97
2018-06-23T14:47:38.181Z,4.07
2018-06-23T14:50:06.675Z,6.83
2018-06-23T14:52:35.177Z,10.13
2018-06-23T14:55:03.734Z,6.90
2018-06-23T14:57:32.193Z,6.53
2018-06-23T15:00:00.657Z,5.90
2018-06-23T15:02:29.119Z,7.23
2018-06-23T15:05:00.781Z,10.50
2018-06-23T15:07:29.330Z,13.63
2018-06-23T15:10:09.241Z,21.83
2018-06-23T15:12:49.493Z,7.00
2018-06-23T15:15:19.001Z,9.40
2018-06-23T15:17:49.149Z,6.97
2018-06-23T15:20:19.588Z,10.73
2018-06-23T15:22:48.325Z,9.30
2018-06-23T15:25:21.708Z,8.50
2018-06-23T15:27:51.057Z,10.80
2018-06-23T15:30:19.602Z,17.73
2018-06-23T15:32:48.354Z,19.57
2018-06-23T15:35:23.054Z,7.50
2018-06-23T15:37:51.708Z,9.97
2018-06-23T15:40:20.178Z,11.10
2018-06-23T15:42:48.873Z,8.60
2018-06-23T15:45:18.435Z,10.27
2018-06-23T15:47:47.647Z,8.70
2018-06-23T15:50:18.995Z,10.30
2018-06-23T15:52:49.591Z,8.93
2018-06-23T15:55:26.320Z,8.53
2018-06-23T15:57:55.395Z,6.07
2018-06-23T16:00:24.599Z,9.60
2018-06-23T16:02:54.060Z,9.67
2018-06-23T16:05:24.876Z,12.80
2018-06-23T16:07:54.904Z,12.00
2018-06-23T16:10:25.666Z,7.87
2018-06-23T16:12:56.315Z,10.70
2018-06-23T16:15:25.654Z,5.23
2018-06-23T16:17:54.534Z,12.23
2018-06-23T16:20:27.119Z,13.77
2018-06-23T16:22:55.656Z,11.70
2018-06-23T16:25:24.150Z,9.63
2018-06-23T16:27:52.630Z,16.83
2018-06-23T16:30:21.077Z,16.40
2018-06-23T16:32:49.191Z,9.60
2018-06-23T16:35:17.842Z,9.53
2018-06-23T16:37:46.147Z,12.70
2018-06-23T16:40:14.609Z,8.43
2018-06-23T16:42:43.085Z,15.90
2018-06-23T16:45:11.526Z,10.87
2018-06-23T16:47:40.055Z,10.13
2018-06-23T16:50:08.637Z,9.23
2018-06-23T16:52:37.158Z,11.37
2018-06-23T16:55:05.759Z,10.90
2018-06-23T16:57:34.256Z,8.70
2018-06-23T17:00:02.879Z,11.67
2018-06-23T17:02:31.385Z,9.40
2018-06-23T17:05:00.046Z,12.33
2018-06-23T17:07:28.515Z,8.30
2018-06-23T17:09:57.026Z,11.20
2018-06-23T17:12:25.539Z,17.90
2018-06-23T17:14:54.094Z,8.23
2018-06-23T17:17:23.806Z,11.90
2018-06-23T17:19:52.340Z,7.70
2018-06-23T17:22:20.854Z,8.97
2018-06-23T17:24:49.421Z,8.53
2018-06-23T17:27:17.929Z,10.73
2018-06-23T17:29:47.164Z,12.90
2018-06-23T17:32:15.797Z,11.63
2018-06-23T17:34:44.384Z,9.40
2018-06-23T17:37:13.767Z,8.60
2018-06-23T17:39:42.245Z,11.07
2018-06-23T17:42:10.793Z,6.67
2018-06-23T17:44:39.369Z,13.10
2018-06-23T17:47:07.899Z,9.20
2018-06-23T17:49:36.441Z,8.30
2018-06-23T17:52:05.011Z,7.17
2018-06-23T17:54:33.563Z,5.93
2018-06-23T17:57:03.137Z,11.63
2018-06-23T17:59:31.729Z,16.57
2018-06-23T18:02:00.461Z,9.30
2018-06-23T18:04:30.604Z,12.33
2018-06-23T18:06:59.210Z,10.73
2018-06-23T18:09:27.673Z,6.33
2018-06-23T18:11:56.123Z,12.43
2018-06-23T18:14:27.359Z,9.40
2018-06-23T18:17:03.454Z,9.27
2018-06-23T18:19:32.698Z,10.70
2018-06-23T18:22:01.289Z,10.50
2018-06-23T18:24:29.801Z,9.93
2018-06-23T18:26:58.255Z,13.43
2018-06-23T18:29:26.695Z,13.07
2018-06-23T18:31:55.180Z,13.40
2018-06-23T18:34:23.644Z,7.60
2018-06-23T18:36:52.098Z,8.20
2018-06-23T18:39:20.568Z,6.43
2018-06-23T18:41:49.052Z,7.00
2018-06-23T18:44:17.513Z,16.40
2018-06-23T18:46:46.040Z,10.07
2018-06-23T18:49:14.577Z,11.03
2018-06-23T18:51:43.081Z,6.67
2018-06-23T18:54:11.535Z,8.97
2018-06-23T18:56:40.047Z,10.53
2018-06-23T18:59:08.641Z,9.90
2018-06-23T19:01:36.826Z,5.10
2018-06-23T19:04:05.120Z,7.07
2018-06-23T19:06:34.659Z,8.10
2018-06-23T19:09:03.710Z,6.30
2018-06-23T19:11:32.140Z,6.60
2018-06-23T19:14:00.826Z,7.43
2018-06-23T19:16:29.317Z,7.30
2018-06-23T19:18:57.814Z,5.97
2018-06-23T19:21:26.343Z,9.10
2018-06-23T19:23:54.797Z,5.20
2018-06-23T19:29:14.862Z,7.77
2018-06-23T19:31:44.218Z,10.73
2018-06-23T19:34:12.657Z,13.27
2018-06-23T19:36:41.336Z,9.03
2018-06-23T19:39:10.874Z,6.93
2018-06-23T19:41:39.321Z,6.00
2018-06-23T19:44:07.833Z,6.43
2018-06-23T19:46:36.285Z,11.20
2018-06-23T19:49:04.762Z,6.90
2018-06-23T19:51:33.223Z,7.20
2018-06-23T19:54:01.726Z,7.57
2018-06-23T19:56:30.232Z,7.60
2018-06-23T19:58:58.748Z,12.60
2018-06-23T20:01:27.182Z,5.73
2018-06-23T20:04:02.231Z,5.63
2018-06-23T20:06:30.710Z,13.87
2018-06-23T20:08:59.247Z,8.60
2018-06-23T20:11:27.729Z,5.03
2018-06-23T20:13:56.186Z,5.27
2018-06-23T20:16:24.643Z,5.62
2018-06-23T20:18:53.106Z,6.95
2018-06-23T20:21:21.573Z,9.95
2018-06-23T20:23:50.038Z,7.37
2018-06-23T20:26:18.515Z,7.20
2018-06-23T20:28:46.958Z,9.00
2018-06-23T20:31:15.428Z,7.10
2018-06-23T20:33:43.902Z,5.15
2018-06-23T20:36:12.362Z,9.40
2018-06-23T20:38:40.902Z,6.15
2018-06-23T20:41:10.512Z,13.85
2018-06-23T20:43:38.991Z,10.58
2018-06-23T20:46:09.307Z,8.03
2018-06-23T20:48:37.911Z,14.43
2018-06-23T20:51:06.434Z,6.60
2018-06-23T20:53:34.915Z,9.90
2018-06-23T20:56:03.770Z,6.25
2018-06-23T20:58:32.690Z,5.90
2018-06-23T21:01:01.611Z,9.23
2018-06-23T21:03:30.197Z,7.95
2018-06-23T21:05:59.299Z,12.07
2018-06-23T21:08:27.891Z,6.65
2018-06-23T21:10:56.403Z,12.03
2018-06-23T21:13:24.987Z,7.47
2018-06-23T21:15:53.431Z,7.92
2018-06-23T21:18:21.955Z,8.93
2018-06-23T21:20:50.506Z,6.92
2018-06-23T21:23:18.990Z,7.25
2018-06-23T21:25:47.530Z,6.75
2018-06-23T21:28:16.042Z,9.28
2018-06-23T21:30:44.768Z,7.40
2018-06-23T21:33:13.217Z,10.58
2018-06-23T21:35:41.646Z,10.95
2018-06-23T21:38:10.126Z,10.00
2018-06-23T21:40:38.589Z,11.80
2018-06-23T21:43:07.690Z,7.70
2018-06-23T21:45:36.541Z,11.08
2018-06-23T21:48:05.046Z,7.78
2018-06-23T21:50:33.543Z,7.15
2018-06-23T21:53:02.057Z,7.62
2018-06-23T21:55:30.601Z,7.70
2018-06-23T21:57:59.242Z,8.00
2018-06-23T22:00:34.041Z,6.80
2018-06-23T22:03:06.336Z,9.18
2018-06-23T22:05:35.145Z,10.23
2018-06-23T22:08:03.804Z,6.67
2018-06-23T22:10:32.294Z,7.75
2018-06-23T22:13:01.272Z,6.85
2018-06-23T22:15:29.946Z,7.37
2018-06-23T22:17:58.576Z,9.55
2018-06-23T22:20:27.101Z,8.00
2018-06-23T22:22:55.609Z,8.65
2018-06-23T22:25:24.221Z,7.45
2018-06-23T22:27:52.793Z,11.93
2018-06-23T22:30:22.049Z,8.48
2018-06-23T22:32:51.715Z,9.08
2018-06-23T22:35:21.806Z,8.23
2018-06-23T22:37:52.072Z,9.90
2018-06-23T22:40:20.670Z,13.50
2018-06-23T22:42:49.697Z,10.85
2018-06-23T22:45:18.343Z,14.13
2018-06-23T22:47:47.345Z,9.05
2018-06-23T22:50:15.807Z,7.12
2018-06-23T22:52:45.103Z,8.13
2018-06-23T22:55:13.694Z,7.62
2018-06-23T22:57:42.239Z,8.70
2018-06-23T23:00:12.708Z,6.17
2018-06-23T23:02:41.138Z,6.70
2018-06-23T23:05:09.982Z,11.88
2018-06-23T23:07:38.810Z,10.18
2018-06-23T23:10:08.400Z,14.78
2018-06-23T23:12:36.991Z,7.10
2018-06-23T23:15:05.714Z,7.37
2018-06-23T23:17:34.153Z,12.73
2018-06-23T23:20:02.713Z,10.93
2018-06-23T23:22:31.499Z,9.63
2018-06-23T23:25:00.055Z,7.05
2018-06-23T23:27:28.553Z,8.55
2018-06-23T23:29:57.021Z,7.25
2018-06-23T23:32:25.813Z,8.68
2018-06-23T23:34:55.315Z,14.55
2018-06-23T23:37:23.897Z,7.47
2018-06-23T23:39:52.398Z,7.72
2018-06-23T23:42:20.890Z,12.37
2018-06-23T23:44:49.517Z,7.28
2018-06-23T23:47:18.023Z,8.80
2018-06-23T23:49:46.549Z,9.40
2018-06-23T23:52:15.505Z,8.10
2018-06-23T23:54:44.011Z,10.38
2018-06-23T23:57:12.494Z,6.87
2018-06-23T23:59:42.182Z,7.40
